createdAt,value
2022-10-22T00:00:58.854Z,2.35
2022-10-22T00:03:26.800Z,1.45
2022-10-22T00:05:54.662Z,1.30
2022-10-22T00:08:22.765Z,1.00
2022-10-22T00:10:50.637Z,1.80
2022-10-22T00:13:18.544Z,2.33
2022-10-22T00:15:47.825Z,0.68
2022-10-22T00:18:15.910Z,4.25
2022-10-22T00:20:44.065Z,0.55
2022-10-22T00:23:11.950Z,1.20
2022-10-22T00:25:39.821Z,4.80
2022-10-22T00:28:07.782Z,0.95
2022-10-22T00:30:35.679Z,1.65
2022-10-22T00:33:05.076Z,1.10
2022-10-22T00:35:33.730Z,15.90
2022-10-22T00:38:01.615Z,0.70
2022-10-22T00:40:29.564Z,1.17
2022-10-22T00:42:57.423Z,4.80
2022-10-22T00:45:26.464Z,1.00
2022-10-22T00:47:58.352Z,3.08
2022-10-22T00:50:32.644Z,1.75
2022-10-22T00:53:01.304Z,2.50
2022-10-22T00:55:29.991Z,3.08
2022-10-22T00:57:59.171Z,0.85
2022-10-22T01:00:27.620Z,0.60
2022-10-22T01:02:56.309Z,1.40
2022-10-22T01:05:24.718Z,1.90
2022-10-22T01:07:54.980Z,1.02
2022-10-22T01:10:39.475Z,1.45
2022-10-22T01:13:18.548Z,2.27
2022-10-22T01:15:54.150Z,2.00
2022-10-22T01:18:26.041Z,1.38
2022-10-22T01:21:01.429Z,1.25
2022-10-22T01:24:04.569Z,0.47
2022-10-22T01:26:44.960Z,1.95
2022-10-22T01:29:18.135Z,5.10
2022-10-22T01:31:48.416Z,1.17
2022-10-22T01:34:19.228Z,0.63
2022-10-22T01:36:48.745Z,1.38
2022-10-22T01:39:17.357Z,1.42
2022-10-22T01:41:46.373Z,1.17
2022-10-22T01:44:28.158Z,2.78
2022-10-22T01:47:15.012Z,3.03
2022-10-22T01:50:01.098Z,1.25
2022-10-22T01:52:41.968Z,1.30
2022-10-22T01:55:21.875Z,0.90
2022-10-22T01:57:56.072Z,2.08
2022-10-22T02:00:25.767Z,1.80
2022-10-22T02:03:00.275Z,3.22
2022-10-22T02:05:33.848Z,1.65
2022-10-22T02:08:07.159Z,0.95
2022-10-22T02:10:38.197Z,0.80
2022-10-22T02:13:09.151Z,0.60
2022-10-22T02:15:40.677Z,1.42
2022-10-22T02:18:11.121Z,0.60
2022-10-22T02:20:41.440Z,0.50
2022-10-22T02:23:10.774Z,0.82
2022-10-22T02:25:41.989Z,1.73
2022-10-22T02:28:17.820Z,1.95
2022-10-22T02:30:53.862Z,0.70
2022-10-22T02:33:25.529Z,1.50
2022-10-22T02:35:54.145Z,0.77
2022-10-22T02:38:22.928Z,1.02
2022-10-22T02:40:50.945Z,0.85
2022-10-22T02:43:19.510Z,1.05
2022-10-22T02:45:48.769Z,2.28
2022-10-22T02:48:16.752Z,0.90
2022-10-22T02:50:44.704Z,1.40
2022-10-22T02:53:12.580Z,0.82
2022-10-22T02:55:40.421Z,2.50
2022-10-22T02:58:08.265Z,0.77
2022-10-22T03:00:36.199Z,1.17
2022-10-22T03:03:05.454Z,1.48
2022-10-22T03:05:33.312Z,1.05
2022-10-22T03:08:01.157Z,0.85
2022-10-22T03:10:29.054Z,0.95
2022-10-22T03:12:57.072Z,0.82
2022-10-22T03:15:25.072Z,0.90
2022-10-22T03:17:53.022Z,0.40
2022-10-22T03:20:22.258Z,2.42
2022-10-22T03:22:50.490Z,0.50
2022-10-22T03:25:23.648Z,0.73
2022-10-22T03:27:53.455Z,0.73
2022-10-22T03:30:21.529Z,1.75
2022-10-22T03:32:49.412Z,0.50
2022-10-22T03:35:17.380Z,1.80
2022-10-22T03:37:46.610Z,0.68
2022-10-22T03:40:15.208Z,2.22
2022-10-22T03:42:43.750Z,1.27
2022-10-22T03:45:12.328Z,1.08
2022-10-22T03:47:40.514Z,1.88
2022-10-22T03:50:09.857Z,0.60
2022-10-22T03:52:39.704Z,0.57
2022-10-22T03:55:10.208Z,0.95
2022-10-22T03:57:38.340Z,1.30
2022-10-22T04:00:08.296Z,0.80
2022-10-22T04:02:36.150Z,0.50
2022-10-22T04:05:04.115Z,0.98
2022-10-22T04:07:32.069Z,0.70
2022-10-22T04:09:59.936Z,0.52
2022-10-22T04:12:29.123Z,1.17
2022-10-22T04:14:57.000Z,0.68
2022-10-22T04:17:24.849Z,1.27
2022-10-22T04:19:52.727Z,0.70
2022-10-22T04:22:20.594Z,0.77
2022-10-22T04:24:48.516Z,0.73
2022-10-22T04:27:16.371Z,1.70
2022-10-22T04:29:45.605Z,0.95
2022-10-22T04:32:13.477Z,1.42
2022-10-22T04:34:41.324Z,0.40
2022-10-22T04:37:09.203Z,0.73
2022-10-22T04:39:37.050Z,0.70
2022-10-22T04:42:05.350Z,0.60
2022-10-22T04:44:33.382Z,1.30
2022-10-22T04:47:02.585Z,0.70
2022-10-22T04:49:30.444Z,0.73
2022-10-22T04:51:58.321Z,1.13
2022-10-22T04:54:29.016Z,0.73
2022-10-22T04:57:00.207Z,0.57
2022-10-22T04:59:28.074Z,0.45
2022-10-22T05:01:56.294Z,0.70
2022-10-22T05:04:25.536Z,1.00
2022-10-22T05:06:53.450Z,0.68
2022-10-22T05:09:22.292Z,0.80
2022-10-22T05:11:52.549Z,0.70
2022-10-22T05:14:22.965Z,0.55
2022-10-22T05:16:51.769Z,0.75
2022-10-22T05:19:23.784Z,2.47
2022-10-22T05:21:53.275Z,1.33
2022-10-22T05:24:21.507Z,2.70
2022-10-22T05:26:50.755Z,0.77
2022-10-22T05:29:18.732Z,0.95
2022-10-22T05:31:46.878Z,0.85
2022-10-22T05:34:15.341Z,0.60
2022-10-22T05:36:44.195Z,1.70
2022-10-22T05:39:13.952Z,2.47
2022-10-22T05:41:41.875Z,0.65
2022-10-22T05:44:13.391Z,0.80
2022-10-22T05:46:41.258Z,0.57
2022-10-22T05:49:09.259Z,0.57
2022-10-22T05:51:38.237Z,0.88
2022-10-22T05:54:08.334Z,1.85
2022-10-22T05:56:37.772Z,0.60
2022-10-22T05:59:05.722Z,1.13
2022-10-22T06:01:35.292Z,1.13
2022-10-22T06:04:05.915Z,0.63
2022-10-22T06:06:35.620Z,0.40
2022-10-22T06:09:06.451Z,0.68
2022-10-22T06:11:35.351Z,0.60
2022-10-22T06:14:05.400Z,0.68
2022-10-22T06:16:33.656Z,0.70
2022-10-22T06:19:01.901Z,0.70
2022-10-22T06:21:30.358Z,1.35
2022-10-22T06:23:58.840Z,1.88
2022-10-22T06:26:27.067Z,0.75
2022-10-22T06:28:56.644Z,0.70
2022-10-22T06:31:27.161Z,1.02
2022-10-22T06:33:55.115Z,3.05
2022-10-22T06:36:24.630Z,0.80
2022-10-22T06:38:53.512Z,1.13
2022-10-22T06:41:24.277Z,1.02
2022-10-22T06:43:55.673Z,1.95
2022-10-22T06:46:25.018Z,3.35
2022-10-22T06:48:56.261Z,0.47
2022-10-22T06:51:24.173Z,1.30
2022-10-22T06:53:52.235Z,4.40
2022-10-22T06:56:23.041Z,1.13
2022-10-22T06:58:51.674Z,1.67
2022-10-22T07:01:21.840Z,0.52
2022-10-22T07:03:52.163Z,0.82
2022-10-22T07:06:20.638Z,1.38
2022-10-22T07:08:48.950Z,1.02
2022-10-22T07:11:18.989Z,1.08
2022-10-22T07:13:47.730Z,1.13
2022-10-22T07:16:16.713Z,0.75
2022-10-22T07:18:44.783Z,0.90
2022-10-22T07:21:15.479Z,0.50
2022-10-22T07:23:43.709Z,0.82
2022-10-22T07:26:14.045Z,4.78
2022-10-22T07:28:42.073Z,4.90
2022-10-22T07:31:11.959Z,0.70
2022-10-22T07:33:40.824Z,0.70
2022-10-22T07:36:11.492Z,1.52
2022-10-22T07:38:40.746Z,1.00
2022-10-22T07:41:08.636Z,1.40
2022-10-22T07:43:36.598Z,2.15
2022-10-22T07:46:04.492Z,6.40
2022-10-22T07:48:32.469Z,5.38
2022-10-22T07:51:00.394Z,7.22
2022-10-22T07:53:28.260Z,5.97
2022-10-22T07:55:57.773Z,2.90
2022-10-22T07:58:25.958Z,4.55
2022-10-22T08:00:56.922Z,3.00
2022-10-22T08:03:25.248Z,2.47
2022-10-22T08:05:53.830Z,2.72
2022-10-22T08:08:24.892Z,1.83
2022-10-22T08:10:58.538Z,1.25
2022-10-22T08:13:30.370Z,5.25
2022-10-22T08:15:59.152Z,3.95
2022-10-22T08:18:27.207Z,5.95
2022-10-22T08:20:55.144Z,6.55
2022-10-22T08:23:26.061Z,7.03
2022-10-22T08:25:56.438Z,7.38
2022-10-22T08:28:25.355Z,2.65
2022-10-22T08:30:54.806Z,8.48
2022-10-22T08:33:23.142Z,1.80
2022-10-22T08:35:51.584Z,5.25
2022-10-22T08:38:20.520Z,4.25
2022-10-22T08:40:52.366Z,2.50
2022-10-22T08:43:38.821Z,4.05
2022-10-22T08:46:19.639Z,2.35
2022-10-22T08:48:50.401Z,5.13
2022-10-22T08:51:20.441Z,5.25
2022-10-22T08:54:19.548Z,2.55
2022-10-22T08:56:54.860Z,2.10
2022-10-22T08:59:28.798Z,2.22
2022-10-22T09:01:58.353Z,4.05
2022-10-22T09:04:31.817Z,3.50
2022-10-22T09:07:01.094Z,1.40
2022-10-22T09:09:32.635Z,1.50
2022-10-22T09:12:02.025Z,3.30
2022-10-22T09:14:30.903Z,6.20
2022-10-22T09:17:14.472Z,3.40
2022-10-22T09:19:54.261Z,5.30
2022-10-22T09:25:24.176Z,2.40
2022-10-22T09:27:53.160Z,3.17
2022-10-22T09:30:23.594Z,2.50
2022-10-22T09:32:55.787Z,6.45
2022-10-22T09:35:25.221Z,4.65
2022-10-22T09:37:56.123Z,1.10
2022-10-22T09:40:24.217Z,4.53
2022-10-22T09:42:52.070Z,3.33
2022-10-22T09:45:21.999Z,7.32
2022-10-22T09:48:01.437Z,5.13
2022-10-22T09:50:43.966Z,5.15
2022-10-22T09:53:20.065Z,8.45
2022-10-22T09:55:53.592Z,4.10
2022-10-22T09:58:22.256Z,6.70
2022-10-22T10:00:54.341Z,3.03
2022-10-22T10:03:25.711Z,5.47
2022-10-22T10:06:00.062Z,5.90
2022-10-22T10:08:31.119Z,5.32
2022-10-22T10:11:03.820Z,7.18
2022-10-22T10:13:46.313Z,2.35
2022-10-22T10:16:27.557Z,7.13
2022-10-22T10:19:11.210Z,2.10
2022-10-22T10:21:50.387Z,3.95
2022-10-22T10:24:25.821Z,3.72
2022-10-22T10:26:59.616Z,3.47
2022-10-22T10:29:40.391Z,8.95
2022-10-22T10:32:23.590Z,6.63
2022-10-22T10:35:02.041Z,4.75
2022-10-22T10:37:35.490Z,11.98
2022-10-22T10:40:15.752Z,8.05
2022-10-22T10:42:49.264Z,9.20
2022-10-22T10:45:21.336Z,10.20
2022-10-22T10:48:22.114Z,8.95
2022-10-22T10:50:57.770Z,12.02
2022-10-22T10:53:38.128Z,16.35
2022-10-22T10:56:25.546Z,12.15
2022-10-22T10:59:02.749Z,13.55
2022-10-22T11:01:37.145Z,16.55
2022-10-22T11:04:24.121Z,12.55
2022-10-22T11:07:10.646Z,17.40
2022-10-22T11:09:51.888Z,15.75
2022-10-22T11:12:23.953Z,14.45
2022-10-22T11:14:59.787Z,18.13
2022-10-22T11:17:36.119Z,14.40
2022-10-22T11:20:16.289Z,17.08
2022-10-22T11:23:16.878Z,10.13
2022-10-22T11:25:44.425Z,14.07
2022-10-22T11:28:16.675Z,15.45
2022-10-22T11:30:48.261Z,15.02
2022-10-22T11:33:22.634Z,10.90
2022-10-22T11:35:51.732Z,23.60
2022-10-22T11:38:25.325Z,17.83
2022-10-22T11:41:00.094Z,17.15
2022-10-22T11:43:30.114Z,22.45
2022-10-22T11:46:26.322Z,18.85
2022-10-22T11:49:06.829Z,15.02
2022-10-22T11:51:35.540Z,14.57
2022-10-22T11:54:04.791Z,18.15
2022-10-22T11:56:40.267Z,15.23
2022-10-22T11:59:38.771Z,19.30
2022-10-22T12:02:40.934Z,14.60
2022-10-22T12:05:44.678Z,15.27
2022-10-22T12:08:24.606Z,12.88
2022-10-22T12:11:05.786Z,14.30
2022-10-22T12:13:59.693Z,15.40
2022-10-22T12:16:37.950Z,10.68
2022-10-22T12:19:19.458Z,10.55
2022-10-22T12:21:49.910Z,14.45
2022-10-22T12:24:21.989Z,9.95
2022-10-22T12:26:52.636Z,9.80
2022-10-22T12:29:25.588Z,10.82
2022-10-22T12:31:54.903Z,12.25
2022-10-22T12:34:25.165Z,17.17
2022-10-22T12:36:54.767Z,12.10
2022-10-22T12:39:26.909Z,16.80
2022-10-22T12:41:56.202Z,11.00
2022-10-22T12:44:25.479Z,11.25
2022-10-22T12:46:56.831Z,9.68
2022-10-22T12:49:30.384Z,10.98
2022-10-22T12:52:02.242Z,9.48
2022-10-22T12:54:33.075Z,13.45
2022-10-22T12:57:01.451Z,10.40
2022-10-22T12:59:34.843Z,6.25
2022-10-22T13:02:06.723Z,10.77
2022-10-22T13:04:39.089Z,11.90
2022-10-22T13:07:21.156Z,11.88
2022-10-22T13:09:59.465Z,11.13
2022-10-22T13:12:29.639Z,9.60
2022-10-22T13:15:18.932Z,8.40
2022-10-22T13:17:48.130Z,11.23
2022-10-22T13:20:22.241Z,12.68
2022-10-22T13:23:00.282Z,7.47
2022-10-22T13:25:30.702Z,9.23
2022-10-22T13:28:00.850Z,6.18
2022-10-22T13:30:31.891Z,6.15
2022-10-22T13:33:02.049Z,5.25
2022-10-22T13:35:32.701Z,9.95
2022-10-22T13:38:00.772Z,10.98
2022-10-22T13:40:29.216Z,6.43
2022-10-22T13:42:57.077Z,8.05
2022-10-22T13:45:25.029Z,12.35
2022-10-22T13:47:57.066Z,5.95
2022-10-22T13:50:25.047Z,7.22
2022-10-22T13:52:56.015Z,6.93
2022-10-22T13:55:26.804Z,8.50
2022-10-22T13:57:57.298Z,6.18
2022-10-22T14:00:26.213Z,11.20
2022-10-22T14:02:59.064Z,6.85
2022-10-22T14:05:27.415Z,5.32
2022-10-22T14:07:55.502Z,6.63
2022-10-22T14:10:25.637Z,4.38
2022-10-22T14:12:54.032Z,6.47
2022-10-22T14:15:24.728Z,5.78
2022-10-22T14:17:57.500Z,6.63
2022-10-22T14:20:28.267Z,5.85
2022-10-22T14:22:56.791Z,8.65
2022-10-22T14:25:26.200Z,6.88
2022-10-22T14:27:54.764Z,4.95
2022-10-22T14:30:24.461Z,6.85
2022-10-22T14:32:53.310Z,7.13
2022-10-22T14:35:23.892Z,5.75
2022-10-22T14:37:52.536Z,6.07
2022-10-22T14:40:21.788Z,4.75
2022-10-22T14:42:50.208Z,9.23
2022-10-22T14:45:20.061Z,6.32
2022-10-22T14:47:48.438Z,6.47
2022-10-22T14:50:16.669Z,4.18
2022-10-22T14:52:46.442Z,7.68
2022-10-22T14:55:15.894Z,5.45
2022-10-22T14:57:44.467Z,5.50
2022-10-22T15:00:15.034Z,4.28
2022-10-22T15:02:43.321Z,5.32
2022-10-22T15:05:12.116Z,7.97
2022-10-22T15:07:40.459Z,6.07
2022-10-22T15:10:10.668Z,4.20
2022-10-22T15:12:38.577Z,4.15
2022-10-22T15:15:07.891Z,4.93
2022-10-22T15:17:35.923Z,6.57
2022-10-22T15:20:05.447Z,3.30
2022-10-22T15:22:35.200Z,4.80
2022-10-22T15:25:04.331Z,7.95
2022-10-22T15:27:33.621Z,6.68
2022-10-22T15:32:34.672Z,3.08
2022-10-22T15:35:02.626Z,5.13
2022-10-22T15:37:30.823Z,3.50
2022-10-22T15:40:00.383Z,3.13
2022-10-22T15:42:28.361Z,6.75
2022-10-22T15:44:59.885Z,4.15
2022-10-22T15:47:29.518Z,6.28
2022-10-22T15:49:58.162Z,4.22
2022-10-22T15:52:26.171Z,4.93
2022-10-22T15:54:54.194Z,6.10
2022-10-22T15:57:22.055Z,3.47
2022-10-22T15:59:51.807Z,3.80
2022-10-22T16:02:21.065Z,3.35
2022-10-22T16:04:48.934Z,4.25
2022-10-22T16:07:18.867Z,4.65
2022-10-22T16:09:49.308Z,4.03
2022-10-22T16:12:17.443Z,3.28
2022-10-22T16:14:45.456Z,3.80
2022-10-22T16:17:13.909Z,3.10
2022-10-22T16:19:43.312Z,2.90
2022-10-22T16:22:13.768Z,5.10
2022-10-22T16:24:41.826Z,4.60
2022-10-22T16:27:10.114Z,3.58
2022-10-22T16:29:38.986Z,3.15
2022-10-22T16:32:08.022Z,2.83
2022-10-22T16:34:35.958Z,3.45
2022-10-22T16:37:09.810Z,2.70
2022-10-22T16:39:38.048Z,3.20
2022-10-22T16:42:06.477Z,3.08
2022-10-22T16:44:34.399Z,3.67
2022-10-22T16:47:02.334Z,2.80
2022-10-22T16:49:30.222Z,2.95
2022-10-22T16:51:58.080Z,3.45
2022-10-22T16:54:27.337Z,2.72
2022-10-22T16:56:55.213Z,2.72
2022-10-22T16:59:23.076Z,2.80
2022-10-22T17:01:50.956Z,3.40
2022-10-22T17:04:19.123Z,5.55
2022-10-22T17:06:47.016Z,4.78
2022-10-22T17:09:14.949Z,5.40
2022-10-22T17:11:45.036Z,3.85
2022-10-22T17:14:14.394Z,1.92
2022-10-22T17:16:42.341Z,3.88
2022-10-22T17:19:14.014Z,2.25
2022-10-22T17:21:41.902Z,3.15
2022-10-22T17:24:11.561Z,3.47
2022-10-22T17:26:39.646Z,3.70
2022-10-22T17:29:08.962Z,3.88
2022-10-22T17:31:37.921Z,2.85
2022-10-22T17:34:07.592Z,3.15
2022-10-22T17:36:36.504Z,1.73
2022-10-22T17:39:07.090Z,2.05
2022-10-22T17:41:37.414Z,2.28
2022-10-22T17:44:06.903Z,1.98
2022-10-22T17:46:36.251Z,3.13
2022-10-22T17:49:07.112Z,3.05
2022-10-22T17:51:34.982Z,2.58
2022-10-22T17:54:05.924Z,1.77
2022-10-22T17:56:36.991Z,4.53
2022-10-22T17:59:04.900Z,3.75
2022-10-22T18:01:34.227Z,3.10
2022-10-22T18:04:06.368Z,2.85
2022-10-22T18:06:34.902Z,1.38
2022-10-22T18:09:05.612Z,3.38
2022-10-22T18:11:34.321Z,3.83
2022-10-22T18:14:02.273Z,3.90
2022-10-22T18:16:30.257Z,3.33
2022-10-22T18:18:59.047Z,3.78
2022-10-22T18:21:30.131Z,13.15
2022-10-22T18:23:59.284Z,5.15
2022-10-22T18:26:27.339Z,2.85
2022-10-22T18:28:55.492Z,6.28
2022-10-22T18:31:25.127Z,4.88
2022-10-22T18:33:55.490Z,9.32
2022-10-22T18:36:25.784Z,5.18
2022-10-22T18:38:56.982Z,9.50
2022-10-22T18:41:25.496Z,8.55
2022-10-22T18:43:54.043Z,2.25
2022-10-22T18:46:23.977Z,5.57
2022-10-22T18:48:54.188Z,2.92
2022-10-22T18:51:22.187Z,5.65
2022-10-22T18:54:04.570Z,4.40
2022-10-22T18:56:41.575Z,2.80
2022-10-22T18:59:16.093Z,2.97
2022-10-22T19:01:43.980Z,7.88
2022-10-22T19:04:13.848Z,3.50
2022-10-22T19:06:45.708Z,4.25
2022-10-22T19:09:14.779Z,5.00
2022-10-22T19:11:45.472Z,6.30
2022-10-22T19:14:14.596Z,3.22
2022-10-22T19:16:42.504Z,5.72
2022-10-22T19:19:10.421Z,3.42
2022-10-22T19:21:38.541Z,5.03
2022-10-22T19:24:07.155Z,3.88
2022-10-22T19:26:35.650Z,6.47
2022-10-22T19:29:05.405Z,8.88
2022-10-22T19:31:33.393Z,4.43
2022-10-22T19:34:02.587Z,2.42
2022-10-22T19:36:32.555Z,5.05
2022-10-22T19:39:01.720Z,3.95
2022-10-22T19:41:31.628Z,5.75
2022-10-22T19:44:01.198Z,4.10
2022-10-22T19:46:32.428Z,5.28
2022-10-22T19:49:00.767Z,2.33
2022-10-22T19:51:31.714Z,4.70
2022-10-22T19:54:01.012Z,4.63
2022-10-22T19:56:30.138Z,5.07
2022-10-22T19:58:58.360Z,6.32
2022-10-22T20:01:27.159Z,2.40
2022-10-22T20:03:56.911Z,5.13
2022-10-22T20:06:25.344Z,4.53
2022-10-22T20:08:55.983Z,2.60
2022-10-22T20:11:26.282Z,2.33
2022-10-22T20:13:54.276Z,7.78
2022-10-22T20:16:24.245Z,6.43
2022-10-22T20:18:52.311Z,4.03
2022-10-22T20:21:22.516Z,4.18
2022-10-22T20:23:54.091Z,2.35
2022-10-22T20:26:23.809Z,10.63
2022-10-22T20:28:51.928Z,5.13
2022-10-22T20:31:21.426Z,6.95
2022-10-22T20:33:50.387Z,5.63
2022-10-22T20:36:20.136Z,4.57
2022-10-22T20:38:50.036Z,4.07
2022-10-22T20:41:20.074Z,3.38
2022-10-22T20:43:49.340Z,6.63
2022-10-22T20:46:20.387Z,8.00
2022-10-22T20:48:48.558Z,5.18
2022-10-22T20:51:16.472Z,5.43
2022-10-22T20:53:44.368Z,10.63
2022-10-22T20:56:14.480Z,8.85
2022-10-22T20:58:47.856Z,15.00
2022-10-22T21:01:21.409Z,11.65
2022-10-22T21:03:49.962Z,16.00
2022-10-22T21:06:17.992Z,20.55
2022-10-22T21:08:45.994Z,16.38
2022-10-22T21:11:15.262Z,24.58
2022-10-22T21:13:43.225Z,27.35
2022-10-22T21:16:12.894Z,31.38
2022-10-22T21:18:40.826Z,36.00
2022-10-22T21:21:09.661Z,30.67
2022-10-22T21:23:38.076Z,28.88
2022-10-22T21:26:06.645Z,30.60
2022-10-22T21:28:37.455Z,30.40
2022-10-22T21:31:07.633Z,36.88
2022-10-22T21:33:37.307Z,35.10
2022-10-22T21:36:05.843Z,39.38
2022-10-22T21:38:34.371Z,40.10
2022-10-22T21:41:06.183Z,43.80
2022-10-22T21:43:37.355Z,42.03
2022-10-22T21:46:08.056Z,44.67
2022-10-22T21:48:36.942Z,45.05
2022-10-22T21:51:08.472Z,51.28
2022-10-22T21:53:36.897Z,55.50
2022-10-22T21:56:05.297Z,54.25
2022-10-22T21:58:36.472Z,52.13
2022-10-22T22:01:05.251Z,57.15
2022-10-22T22:03:33.388Z,54.75
2022-10-22T22:06:02.665Z,60.88
2022-10-22T22:08:30.849Z,61.30
2022-10-22T22:11:03.046Z,62.65
2022-10-22T22:13:31.491Z,59.28
2022-10-22T22:16:05.725Z,65.18
2022-10-22T22:18:34.305Z,70.88
2022-10-22T22:21:05.917Z,58.72
2022-10-22T22:23:33.915Z,64.55
2022-10-22T22:26:02.830Z,61.33
2022-10-22T22:28:32.092Z,57.58
2022-10-22T22:31:00.557Z,67.90
2022-10-22T22:33:29.934Z,64.97
2022-10-22T22:36:00.232Z,68.85
2022-10-22T22:38:28.117Z,72.95
2022-10-22T22:40:56.033Z,67.55
2022-10-22T22:43:24.012Z,60.45
2022-10-22T22:46:00.294Z,74.75
2022-10-22T22:48:29.824Z,78.18
2022-10-22T22:50:59.927Z,79.45
2022-10-22T22:53:28.829Z,80.63
2022-10-22T22:56:08.104Z,78.35
2022-10-22T22:58:36.420Z,81.32
2022-10-22T23:01:16.397Z,71.13
2022-10-22T23:03:47.405Z,81.65
2022-10-22T23:06:16.330Z,84.45
2022-10-22T23:08:44.960Z,89.18
2022-10-22T23:11:14.894Z,85.38
2022-10-22T23:13:43.790Z,90.10
2022-10-22T23:16:15.451Z,87.40
2022-10-22T23:18:45.263Z,102.60
2022-10-22T23:21:15.314Z,98.43
2022-10-22T23:23:45.618Z,95.05
2022-10-22T23:26:14.131Z,96.68
2022-10-22T23:28:42.376Z,91.03
2022-10-22T23:31:13.335Z,85.70
2022-10-22T23:33:41.777Z,84.60
2022-10-22T23:36:11.969Z,89.07
2022-10-22T23:38:41.968Z,85.72
2022-10-22T23:41:10.319Z,87.72
2022-10-22T23:43:39.436Z,80.45
2022-10-22T23:46:09.158Z,81.78
2022-10-22T23:48:37.528Z,71.65
2022-10-22T23:51:06.345Z,76.78
2022-10-22T23:53:35.883Z,71.75
2022-10-22T23:56:08.779Z,70.10
2022-10-22T23:58:37.181Z,67.18
